Time;durP1;ratioP1;P1;durP2;ratioP2;P2;SDS_P1;SDS_P2;PMS_P1;PMS_P2;Temp;Humidity;BMP_temperature;BMP_pressure;BME280_temperature;BME280_humidity;BME280_pressure;Samples;Min_cycle;Max_cycle;Signal;HPM_P1;HPM_P2
2021/11/16 00:00:23;;;;;;;81.88;38.15;;;6.50;99.90;;;;;;5003555;28;20519;-82
2021/11/16 00:02:49;;;;;;;88.45;38.40;;;6.40;99.90;;;;;;5001894;28;20037;-82
2021/11/16 00:05:16;;;;;;;83.72;37.75;;;6.40;99.90;;;;;;5007701;28;20041;-82
2021/11/16 00:07:41;;;;;;;87.88;37.60;;;6.40;99.90;;;;;;5004071;28;20088;-82
2021/11/16 00:10:09;;;;;;;91.47;37.92;;;6.40;99.90;;;;;;5001127;28;20037;-82
2021/11/16 00:12:35;;;;;;;87.55;39.22;;;6.40;99.90;;;;;;5010960;28;20319;-82
2021/11/16 00:15:01;;;;;;;85.05;38.65;;;6.40;99.90;;;;;;5000767;28;20030;-82
2021/11/16 00:17:27;;;;;;;82.80;37.63;;;6.40;99.90;;;;;;5002562;28;20450;-82
2021/11/16 00:19:52;;;;;;;85.47;38.53;;;6.40;99.90;;;;;;4997092;28;20431;-82
2021/11/16 00:22:19;;;;;;;85.95;38.78;;;6.50;99.90;;;;;;4986460;28;20079;-82
2021/11/16 00:25:47;;;;;;;86.65;36.85;;;6.50;99.90;;;;;;5001922;28;20404;-82
2021/11/16 00:27:45;;;;;;;81.85;38.67;;;6.60;99.90;;;;;;4986900;28;20041;-82
2021/11/16 00:30:12;;;;;;;84.43;37.47;;;6.50;99.90;;;;;;5005381;28;20403;-82
2021/11/16 00:32:38;;;;;;;95.22;38.45;;;6.40;99.90;;;;;;5001073;28;20037;-83
2021/11/16 00:35:06;;;;;;;89.53;39.63;;;6.50;99.90;;;;;;5000035;28;20069;-82
2021/11/16 00:37:32;;;;;;;87.90;39.00;;;6.40;99.90;;;;;;4997462;28;20040;-82
2021/11/16 00:40:01;;;;;;;83.65;37.00;;;6.40;99.90;;;;;;5001193;28;20034;-82
2021/11/16 00:42:28;;;;;;;78.60;35.53;;;6.40;99.90;;;;;;5011870;28;20506;-83
2021/11/16 00:44:54;;;;;;;81.28;36.83;;;6.40;99.90;;;;;;5008052;28;20049;-82
2021/11/16 00:47:20;;;;;;;80.05;37.20;;;6.40;99.90;;;;;;4995847;28;20077;-82
2021/11/16 00:49:47;;;;;;;82.63;37.83;;;6.40;99.90;;;;;;5000402;28;20088;-82
2021/11/16 00:52:12;;;;;;;79.32;36.75;;;6.40;99.90;;;;;;5015942;28;20452;-82
2021/11/16 00:54:38;;;;;;;77.60;38.25;;;6.40;99.90;;;;;;5007853;28;20045;-82
2021/11/16 00:57:05;;;;;;;75.03;36.58;;;6.30;99.90;;;;;;5001723;28;20040;-82
2021/11/16 00:59:32;;;;;;;77.68;37.88;;;6.30;99.90;;;;;;5009465;28;20045;-82
2021/11/16 01:01:58;;;;;;;82.30;37.95;;;6.30;99.90;;;;;;5016491;28;20034;-82
2021/11/16 01:04:26;;;;;;;85.20;38.58;;;6.30;99.90;;;;;;4994288;28;20045;-82
2021/11/16 01:06:52;;;;;;;83.80;39.03;;;6.30;99.90;;;;;;5010744;28;20042;-82
2021/11/16 01:09:18;;;;;;;85.38;39.85;;;6.30;99.90;;;;;;5018228;28;20136;-82
2021/11/16 01:11:43;;;;;;;84.43;38.25;;;6.30;99.90;;;;;;5001068;28;20120;-82
2021/11/16 01:14:09;;;;;;;86.97;38.17;;;6.30;99.90;;;;;;5013570;28;20038;-82
2021/11/16 01:16:35;;;;;;;83.93;37.97;;;6.30;99.90;;;;;;5014929;28;20495;-82
2021/11/16 01:19:02;;;;;;;85.15;38.08;;;6.30;99.90;;;;;;5009821;28;20091;-82
2021/11/16 01:21:27;;;;;;;78.57;36.40;;;6.30;99.90;;;;;;5012307;28;20126;-82
2021/11/16 01:23:53;;;;;;;75.88;35.45;;;6.30;99.90;;;;;;5008205;28;20448;-82
2021/11/16 01:26:19;;;;;;;81.68;36.72;;;6.40;99.90;;;;;;5014169;28;20044;-82
2021/11/16 01:28:45;;;;;;;82.05;35.65;;;6.40;99.90;;;;;;5013856;28;20186;-82
2021/11/16 01:31:10;;;;;;;85.75;38.28;;;6.30;99.90;;;;;;5006935;28;20036;-82
2021/11/16 01:33:44;;;;;;;83.32;36.70;;;6.30;99.90;;;;;;4999138;28;20120;-82
2021/11/16 01:36:13;;;;;;;93.78;38.47;;;6.30;99.90;;;;;;4989055;28;20115;-82
2021/11/16 01:38:40;;;;;;;84.35;37.40;;;6.30;99.90;;;;;;5011207;28;20443;-82
2021/11/16 01:41:06;;;;;;;79.47;37.83;;;6.30;99.90;;;;;;5022698;28;20038;-82
2021/11/16 01:43:33;;;;;;;88.68;39.72;;;6.30;99.90;;;;;;5011878;28;20057;-82
2021/11/16 01:46:02;;;;;;;82.65;37.40;;;6.30;99.90;;;;;;5018762;28;20041;-82
2021/11/16 01:48:29;;;;;;;79.18;36.83;;;6.30;99.90;;;;;;5009399;28;20041;-82
2021/11/16 01:50:55;;;;;;;82.20;39.10;;;6.40;99.90;;;;;;5011779;28;20034;-82
2021/11/16 01:53:21;;;;;;;83.30;39.03;;;6.40;99.90;;;;;;5007441;28;20044;-82
2021/11/16 01:55:46;;;;;;;92.07;39.55;;;6.30;99.90;;;;;;5015124;28;20488;-82
2021/11/16 01:58:12;;;;;;;87.65;38.72;;;6.40;99.90;;;;;;5013269;28;20052;-82
2021/11/16 02:00:43;;;;;;;85.55;39.05;;;6.30;99.90;;;;;;5008713;28;20424;-82
2021/11/16 02:03:11;;;;;;;87.50;39.80;;;6.30;99.90;;;;;;5002689;28;20041;-82
2021/11/16 02:05:46;;;;;;;83.97;39.17;;;6.30;99.90;;;;;;5014587;28;20038;-82
2021/11/16 02:08:13;;;;;;;89.63;38.47;;;6.20;99.90;;;;;;5004401;28;20033;-82
2021/11/16 02:10:42;;;;;;;82.63;39.13;;;6.20;99.90;;;;;;5010397;28;20091;-82
2021/11/16 02:13:08;;;;;;;91.88;40.08;;;6.30;99.90;;;;;;5012784;28;20434;-82
2021/11/16 02:15:38;;;;;;;85.40;38.88;;;6.20;99.90;;;;;;5011614;28;20033;-82
2021/11/16 02:18:06;;;;;;;87.88;38.15;;;6.20;99.90;;;;;;4999388;28;20451;-82
2021/11/16 02:20:32;;;;;;;88.50;39.58;;;6.20;99.90;;;;;;4988604;28;20099;-82
2021/11/16 02:22:58;;;;;;;83.18;39.15;;;6.20;99.90;;;;;;4998983;28;20460;-82
2021/11/16 02:25:24;;;;;;;86.05;38.83;;;6.20;99.90;;;;;;5003583;28;20069;-82
2021/11/16 02:27:50;;;;;;;90.70;40.30;;;6.20;99.90;;;;;;5001793;28;20089;-82
2021/11/16 02:30:19;;;;;;;97.82;40.28;;;6.20;99.90;;;;;;5010052;28;20033;-82
2021/11/16 02:32:46;;;;;;;91.22;41.53;;;6.20;99.90;;;;;;5020278;28;20037;-83
2021/11/16 02:35:15;;;;;;;93.35;40.50;;;6.20;99.90;;;;;;5012925;28;20095;-82
2021/11/16 02:37:41;;;;;;;93.45;41.63;;;6.20;99.90;;;;;;5013749;28;20033;-82
2021/11/16 02:40:07;;;;;;;92.50;42.72;;;6.20;99.90;;;;;;5005090;28;20117;-82
2021/11/16 02:42:34;;;;;;;98.97;41.67;;;6.30;99.90;;;;;;5012533;28;20176;-82
2021/11/16 02:45:00;;;;;;;93.30;42.22;;;6.20;99.90;;;;;;5004545;28;20045;-82
2021/11/16 02:47:26;;;;;;;90.97;40.67;;;6.20;99.90;;;;;;4999231;28;20053;-82
2021/11/16 02:49:54;;;;;;;90.28;42.35;;;6.20;99.90;;;;;;5013905;28;20041;-82
2021/11/16 02:52:20;;;;;;;95.20;41.65;;;6.20;99.90;;;;;;5009856;28;20038;-82
2021/11/16 02:54:46;;;;;;;91.15;41.50;;;6.20;99.90;;;;;;5007561;28;20033;-82
2021/11/16 02:57:12;;;;;;;95.13;40.95;;;6.20;99.90;;;;;;5010200;28;20041;-82
2021/11/16 02:59:40;;;;;;;94.43;41.10;;;6.20;99.90;;;;;;5001257;28;20037;-82
2021/11/16 03:02:06;;;;;;;93.07;41.38;;;6.20;99.90;;;;;;5006961;28;20044;-82
2021/11/16 03:04:35;;;;;;;91.68;41.55;;;6.20;99.90;;;;;;5005066;28;20044;-82
2021/11/16 03:07:02;;;;;;;94.32;40.60;;;6.20;99.90;;;;;;5012842;28;20037;-82
2021/11/16 03:09:33;;;;;;;97.43;42.58;;;6.20;99.90;;;;;;5011761;28;20303;-82
2021/11/16 03:11:59;;;;;;;93.00;40.55;;;6.10;99.90;;;;;;5008495;28;20043;-82
2021/11/16 03:14:26;;;;;;;95.97;40.65;;;6.10;99.90;;;;;;5010258;28;20480;-82
2021/11/16 03:16:52;;;;;;;93.65;41.20;;;6.10;99.90;;;;;;5015395;28;20072;-82
2021/11/16 03:19:18;;;;;;;94.82;41.42;;;6.10;99.90;;;;;;5007476;28;20053;-82
2021/11/16 03:21:53;;;;;;;100.50;42.40;;;6.10;99.90;;;;;;5009529;28;20408;-82
2021/11/16 03:24:20;;;;;;;97.28;40.97;;;6.10;99.90;;;;;;5008085;28;20073;-82
2021/11/16 03:26:46;;;;;;;98.47;43.20;;;6.10;99.90;;;;;;5006924;28;20095;-82
2021/11/16 03:29:12;;;;;;;98.88;41.78;;;6.10;99.90;;;;;;5015146;28;20488;-82
2021/11/16 03:31:48;;;;;;;97.88;42.83;;;6.10;99.90;;;;;;5002757;28;20049;-82
2021/11/16 03:34:17;;;;;;;97.00;42.20;;;6.10;99.90;;;;;;5007972;28;20091;-82
2021/11/16 03:36:43;;;;;;;100.07;43.80;;;6.10;99.90;;;;;;4994181;28;20033;-82
2021/11/16 03:39:09;;;;;;;97.20;43.10;;;6.10;99.90;;;;;;4997195;28;20044;-82
2021/11/16 03:41:34;;;;;;;98.30;42.63;;;6.10;99.90;;;;;;5010247;28;20113;-82
2021/11/16 03:44:00;;;;;;;95.95;42.00;;;6.00;99.90;;;;;;5013899;28;20088;-82
2021/11/16 03:46:26;;;;;;;98.18;40.95;;;6.00;99.90;;;;;;5010201;28;20030;-82
2021/11/16 03:48:52;;;;;;;91.78;40.17;;;6.10;99.90;;;;;;5000287;28;20372;-82
2021/11/16 03:51:17;;;;;;;95.20;40.25;;;6.10;99.90;;;;;;5016210;28;20045;-82
2021/11/16 03:53:43;;;;;;;98.68;41.25;;;6.10;99.90;;;;;;5009565;28;20132;-82
2021/11/16 03:56:09;;;;;;;91.93;40.03;;;6.00;99.90;;;;;;5005704;28;20041;-82
2021/11/16 03:58:37;;;;;;;98.05;41.05;;;6.00;99.90;;;;;;5010684;28;20048;-82
2021/11/16 04:01:05;;;;;;;98.55;40.10;;;6.00;99.90;;;;;;4997198;28;20050;-82
2021/11/16 04:03:34;;;;;;;96.88;41.38;;;6.00;99.90;;;;;;4995951;28;20037;-82
2021/11/16 04:06:00;;;;;;;100.25;42.33;;;6.00;99.90;;;;;;5001560;28;20038;-82
2021/11/16 04:08:26;;;;;;;104.47;42.53;;;6.00;99.90;;;;;;5010995;28;20444;-82
2021/11/16 04:10:53;;;;;;;93.50;41.30;;;6.00;99.90;;;;;;4991404;28;20045;-82
2021/11/16 04:13:19;;;;;;;97.40;43.20;;;6.00;99.90;;;;;;5004174;28;20033;-82
2021/11/16 04:15:47;;;;;;;95.28;42.70;;;6.00;99.90;;;;;;5000594;28;20467;-82
2021/11/16 04:18:13;;;;;;;101.38;43.22;;;6.00;99.90;;;;;;5011425;28;20037;-82
2021/11/16 04:20:42;;;;;;;103.28;42.88;;;6.00;99.90;;;;;;5004848;28;20069;-82
2021/11/16 04:23:10;;;;;;;101.10;42.90;;;6.00;99.90;;;;;;4990466;28;20037;-83
2021/11/16 04:25:38;;;;;;;92.72;41.08;;;6.00;99.90;;;;;;4986038;28;20559;-82
2021/11/16 04:28:06;;;;;;;105.68;42.55;;;6.00;99.90;;;;;;5004407;28;20042;-82
2021/11/16 04:30:32;;;;;;;101.40;42.50;;;6.00;99.90;;;;;;5016207;28;20417;-82
2021/11/16 04:32:58;;;;;;;101.55;41.65;;;6.00;99.90;;;;;;5003932;28;20034;-82
2021/11/16 04:35:24;;;;;;;99.22;41.50;;;6.00;99.90;;;;;;4992985;28;20030;-82
2021/11/16 04:37:52;;;;;;;99.43;40.90;;;5.90;99.90;;;;;;5009497;28;20040;-82
2021/11/16 04:40:24;;;;;;;93.00;40.47;;;6.00;99.90;;;;;;4998534;28;20096;-82
2021/11/16 04:42:51;;;;;;;99.38;41.65;;;6.00;99.90;;;;;;5006787;28;20092;-82
2021/11/16 04:45:22;;;;;;;97.25;40.30;;;6.00;99.90;;;;;;5011450;28;20038;-82
2021/11/16 04:50:30;;;;;;;94.97;40.33;;;6.00;99.90;;;;;;5015218;28;20107;-82
2021/11/16 05:03:51;;;;;;;100.03;40.70;;;6.00;99.90;;;;;;5000005;28;20049;-82
2021/11/16 05:06:17;;;;;;;98.28;42.60;;;6.00;99.90;;;;;;5016898;28;20052;-82
2021/11/16 05:08:45;;;;;;;101.20;43.00;;;6.00;99.90;;;;;;5016499;28;20029;-82
2021/11/16 05:11:11;;;;;;;102.15;42.13;;;6.00;99.90;;;;;;5006677;28;20052;-82
2021/11/16 05:13:39;;;;;;;105.70;44.63;;;6.00;99.90;;;;;;5004913;28;20413;-82
2021/11/16 05:16:08;;;;;;;104.55;42.92;;;6.00;99.90;;;;;;5017831;28;20033;-82
2021/11/16 05:18:33;;;;;;;102.38;42.30;;;6.00;99.90;;;;;;5015086;28;20037;-82
2021/11/16 05:21:00;;;;;;;101.28;40.58;;;6.00;99.90;;;;;;5010707;28;20038;-82
2021/11/16 05:23:26;;;;;;;104.70;42.30;;;6.00;99.90;;;;;;5001153;28;20050;-82
2021/11/16 05:25:53;;;;;;;106.25;41.25;;;6.00;99.90;;;;;;5008359;28;20123;-82
2021/11/16 05:28:20;;;;;;;100.00;40.17;;;6.00;99.90;;;;;;4996706;28;20040;-82
2021/11/16 05:30:47;;;;;;;102.10;40.70;;;6.00;99.90;;;;;;5013155;28;20122;-83
2021/11/16 05:33:13;;;;;;;98.88;38.55;;;6.00;99.90;;;;;;5003411;28;20044;-85
2021/11/16 05:35:39;;;;;;;108.95;41.10;;;6.00;99.90;;;;;;5002580;28;20044;-84
2021/11/16 05:38:05;;;;;;;101.28;39.67;;;6.00;99.90;;;;;;5001290;28;20030;-84
2021/11/16 05:40:31;;;;;;;101.55;39.70;;;6.10;99.90;;;;;;4992121;28;20103;-84
2021/11/16 05:42:57;;;;;;;101.18;38.97;;;6.10;99.90;;;;;;5016741;28;20041;-85
2021/11/16 05:45:23;;;;;;;110.63;41.63;;;6.10;99.90;;;;;;5008129;28;20046;-84
2021/11/16 05:47:53;;;;;;;106.57;39.35;;;6.10;99.90;;;;;;5009933;28;20040;-84
2021/11/16 05:50:19;;;;;;;94.05;38.45;;;6.10;99.90;;;;;;5014242;28;20033;-84
2021/11/16 05:52:45;;;;;;;95.70;38.42;;;6.10;99.90;;;;;;5014305;28;20042;-84
2021/11/16 05:55:11;;;;;;;98.75;40.03;;;6.10;99.90;;;;;;4994727;28;20033;-84
2021/11/16 05:57:37;;;;;;;96.28;39.55;;;6.10;99.90;;;;;;5006033;28;20026;-84
2021/11/16 06:00:06;;;;;;;107.32;40.38;;;6.10;99.90;;;;;;5001259;28;20447;-83
2021/11/16 06:02:32;;;;;;;96.70;37.72;;;6.00;99.90;;;;;;4980496;28;20045;-86
2021/11/16 06:04:57;;;;;;;98.95;39.85;;;6.00;99.90;;;;;;4991346;28;20042;-87
2021/11/16 06:07:23;;;;;;;105.20;40.65;;;6.00;99.90;;;;;;4999861;28;20485;-87
2021/11/16 06:09:49;;;;;;;96.45;38.80;;;6.00;99.90;;;;;;4985468;28;20046;-87
2021/11/16 06:12:14;;;;;;;105.55;42.20;;;6.00;99.90;;;;;;5008580;28;20380;-87
2021/11/16 06:14:40;;;;;;;101.13;41.47;;;5.90;99.90;;;;;;4985795;28;20035;-87
2021/11/16 06:17:06;;;;;;;113.70;43.38;;;5.90;99.90;;;;;;5006958;28;20041;-87
2021/11/16 06:19:35;;;;;;;100.00;40.95;;;6.40;99.90;;;;;;5004446;28;20033;-87
2021/11/16 06:22:01;;;;;;;104.32;39.63;;;5.90;99.90;;;;;;5005739;28;20134;-87
2021/11/16 06:24:27;;;;;;;102.45;40.75;;;6.00;99.90;;;;;;4993621;28;20056;-88
2021/11/16 06:26:52;;;;;;;104.43;40.35;;;6.00;99.90;;;;;;4993220;28;20037;-88
2021/11/16 06:29:18;;;;;;;102.38;40.80;;;5.90;99.90;;;;;;4992778;28;20034;-87
2021/11/16 06:31:44;;;;;;;102.97;38.28;;;6.00;99.90;;;;;;5007330;28;20471;-88
2021/11/16 06:34:10;;;;;;;104.38;40.00;;;6.00;99.90;;;;;;4993887;28;20036;-84
2021/11/16 06:36:40;;;;;;;98.32;39.25;;;5.90;99.90;;;;;;4989369;28;20034;-86
2021/11/16 06:39:20;;;;;;;104.60;40.60;;;5.90;99.90;;;;;;4991191;28;20041;-85
2021/11/16 06:41:47;;;;;;;104.10;38.45;;;5.90;99.90;;;;;;5004548;28;20069;-86
2021/11/16 06:44:15;;;;;;;101.13;37.45;;;5.80;99.90;;;;;;5003038;28;20325;-83
2021/11/16 06:46:42;;;;;;;107.07;39.33;;;5.80;99.90;;;;;;5005627;28;20037;-83
2021/11/16 06:49:08;;;;;;;115.18;40.30;;;5.80;99.90;;;;;;5009563;28;20134;-84
2021/11/16 06:51:39;;;;;;;103.72;39.33;;;5.80;99.90;;;;;;4994603;28;20053;-84
2021/11/16 06:54:11;;;;;;;97.10;38.08;;;5.80;99.90;;;;;;5007626;28;20093;-83
2021/11/16 06:56:38;;;;;;;;;;;5.80;99.90;;;;;;5009416;28;20030;-82
2021/11/16 06:59:04;;;;;;;100.72;38.47;;;5.80;99.90;;;;;;5007763;28;19918;-82
2021/11/16 07:01:30;;;;;;;103.10;40.05;;;5.80;99.90;;;;;;5012620;28;20033;-84
2021/11/16 07:03:59;;;;;;;109.50;41.10;;;5.80;99.90;;;;;;5013642;28;20033;-83
2021/11/16 07:06:31;;;;;;;106.13;39.40;;;5.80;99.90;;;;;;5007747;28;20045;-83
2021/11/16 07:08:57;;;;;;;107.05;41.60;;;5.80;99.90;;;;;;5008692;28;20099;-82
2021/11/16 07:11:24;;;;;;;105.63;42.17;;;5.80;99.90;;;;;;5005403;28;20038;-83
2021/11/16 07:14:05;;;;;;;111.90;41.35;;;5.90;99.90;;;;;;5012872;28;20186;-83
2021/11/16 07:16:36;;;;;;;116.75;41.22;;;5.90;99.90;;;;;;4989730;28;20037;-83
2021/11/16 07:19:08;;;;;;;100.25;40.00;;;5.90;99.90;;;;;;5006369;28;20429;-83
2021/11/16 07:21:48;;;;;;;109.55;42.50;;;5.80;99.90;;;;;;5014229;28;20056;-83
2021/11/16 07:24:17;;;;;;;114.65;42.17;;;5.80;99.90;;;;;;5012442;28;20041;-83
2021/11/16 07:26:53;;;;;;;109.75;38.13;;;5.80;99.90;;;;;;5006208;28;20033;-82
2021/11/16 07:29:34;;;;;;;102.75;37.05;;;5.90;99.90;;;;;;5011464;28;20046;-83
2021/11/16 07:32:02;;;;;;;96.78;37.42;;;5.90;99.90;;;;;;5007951;28;20109;-83
2021/11/16 07:34:33;;;;;;;102.50;38.15;;;5.80;99.90;;;;;;5012122;28;20061;-83
2021/11/16 07:37:13;;;;;;;108.03;40.42;;;5.80;99.90;;;;;;5007642;28;20403;-83
2021/11/16 07:39:50;;;;;;;104.82;38.33;;;5.80;99.90;;;;;;5013630;28;20500;-83
2021/11/16 07:42:16;;;;;;;108.88;38.67;;;5.80;99.90;;;;;;5004977;28;20048;-83
2021/11/16 07:44:59;;;;;;;114.25;39.22;;;5.70;99.90;;;;;;5000502;28;20030;-82
2021/11/16 07:47:46;;;;;;;104.40;38.83;;;5.80;99.90;;;;;;4994245;28;20124;-83
2021/11/16 07:50:34;;;;;;;102.28;37.10;;;5.80;99.90;;;;;;5016361;28;20048;-83
2021/11/16 07:53:11;;;;;;;103.35;38.58;;;5.80;99.90;;;;;;5034019;28;20060;-83
2021/11/16 07:55:38;;;;;;;110.15;40.67;;;5.80;99.90;;;;;;5013515;28;20459;-83
2021/11/16 07:58:06;;;;;;;102.53;37.15;;;5.80;99.90;;;;;;5009680;28;20114;-83
2021/11/16 08:00:33;;;;;;;112.10;39.10;;;5.80;99.90;;;;;;5010901;28;20385;-83
2021/11/16 08:03:04;;;;;;;101.15;36.78;;;5.90;99.90;;;;;;4983689;28;20091;-83
2021/11/16 08:11:16;;;;;;;107.53;35.88;;;5.80;99.90;;;;;;5006741;28;20048;-82
2021/11/16 08:13:59;;;;;;;90.47;35.53;;;5.80;99.90;;;;;;5002247;28;20127;-83
2021/11/16 08:16:29;;;;;;;101.43;36.05;;;5.80;99.90;;;;;;5004422;28;20127;-83
2021/11/16 08:19:05;;;;;;;94.50;35.45;;;5.70;99.90;;;;;;5003524;28;20029;-83
2021/11/16 08:21:32;;;;;;;95.20;34.35;;;5.80;99.90;;;;;;5010072;28;20045;-83
2021/11/16 08:24:08;;;;;;;102.13;36.13;;;5.80;99.90;;;;;;4986527;28;20049;-82
2021/11/16 08:26:41;;;;;;;101.35;36.78;;;5.80;99.90;;;;;;5003420;28;20038;-87
2021/11/16 08:29:09;;;;;;;109.03;38.20;;;5.70;99.90;;;;;;5008726;28;20041;-87
2021/11/16 08:31:42;;;;;;;102.82;36.85;;;5.80;99.90;;;;;;5003086;28;20041;-87
2021/11/16 08:34:09;;;;;;;103.45;36.17;;;5.80;99.90;;;;;;4990150;28;20111;-87
2021/11/16 08:36:53;;;;;;;103.13;36.92;;;5.80;99.90;;;;;;4990601;28;20037;-87
2021/11/16 08:39:22;;;;;;;107.15;36.83;;;5.70;99.90;;;;;;4992458;28;20124;-87
2021/11/16 08:41:49;;;;;;;97.32;35.80;;;5.80;99.90;;;;;;5006057;28;20045;-87
2021/11/16 08:44:21;;;;;;;107.40;36.95;;;5.80;99.90;;;;;;4994056;28;20152;-83
2021/11/16 08:46:50;;;;;;;103.18;36.65;;;5.80;99.90;;;;;;5010674;28;20072;-83
2021/11/16 08:49:31;;;;;;;101.68;35.25;;;5.70;99.90;;;;;;5005878;28;20502;-83
2021/11/16 08:52:01;;;;;;;95.25;33.95;;;5.70;99.90;;;;;;5022222;28;20037;-83
2021/11/16 08:54:31;;;;;;;105.20;35.97;;;5.80;99.90;;;;;;5014467;28;20091;-83
2021/11/16 08:57:00;;;;;;;103.07;36.75;;;5.80;99.90;;;;;;5018622;28;20037;-85
2021/11/16 08:59:25;;;;;;;109.78;36.22;;;5.80;99.90;;;;;;5007420;28;20045;-84
2021/11/16 09:02:01;;;;;;;97.85;35.45;;;5.80;99.90;;;;;;5004590;28;20034;-83
2021/11/16 09:04:32;;;;;;;101.95;36.72;;;5.80;99.90;;;;;;5019928;28;20046;-83
2021/11/16 09:06:59;;;;;;;106.47;36.95;;;5.80;99.90;;;;;;5021140;28;20049;-83
2021/11/16 09:09:26;;;;;;;105.57;36.45;;;5.80;99.90;;;;;;5019217;28;20040;-87
2021/11/16 09:12:04;;;;;;;99.53;35.28;;;5.80;99.90;;;;;;5017303;28;20041;-86
2021/11/16 09:14:31;;;;;;;106.07;35.10;;;5.70;99.90;;;;;;5011368;28;20057;-87
2021/11/16 09:16:59;;;;;;;103.53;35.63;;;5.70;99.90;;;;;;5015014;28;20450;-89
2021/11/16 09:19:31;;;;;;;95.85;35.08;;;5.80;99.90;;;;;;5010723;28;20037;-88
2021/11/16 09:21:58;;;;;;;;;;;5.80;99.90;;;;;;5016776;28;20045;-87
2021/11/16 09:24:35;;;;;;;103.97;35.90;;;5.80;99.90;;;;;;5015289;28;19924;-92
2021/11/16 09:28:04;;;;;;;99.88;35.42;;;6.30;99.90;;;;;;5018191;28;20099;-91
2021/11/16 09:31:16;;;;;;;98.82;33.90;;;5.70;99.90;;;;;;4902795;29;20055;-90
2021/11/16 09:33:42;;;;;;;94.80;33.10;;;5.40;99.90;;;;;;4916955;28;20070;-88
2021/11/16 09:36:08;;;;;;;93.30;33.38;;;6.20;99.90;;;;;;4994570;28;20056;-88
2021/11/16 09:38:46;;;;;;;96.93;33.10;;;5.70;99.90;;;;;;5000851;28;20508;-86
2021/11/16 09:41:15;;;;;;;99.22;33.88;;;5.80;99.90;;;;;;4988748;28;20049;-88
2021/11/16 09:43:41;;;;;;;93.10;33.05;;;5.70;99.90;;;;;;4990282;28;20034;-88
2021/11/16 09:46:14;;;;;;;95.10;34.20;;;5.70;99.90;;;;;;4995890;28;20033;-90
2021/11/16 09:48:40;;;;;;;92.72;34.05;;;5.70;99.90;;;;;;4989337;28;20373;-90
2021/11/16 09:51:19;;;;;;;89.18;31.50;;;5.80;99.90;;;;;;4991040;28;20120;-90
2021/11/16 09:53:45;;;;;;;80.55;29.70;;;5.80;99.90;;;;;;4987508;28;20041;-90
2021/11/16 09:56:24;;;;;;;85.07;30.58;;;5.80;99.90;;;;;;4990560;28;20048;-90
2021/11/16 09:58:51;;;;;;;83.35;30.88;;;5.70;99.90;;;;;;5000502;28;20037;-90
2021/11/16 10:01:27;;;;;;;87.85;32.70;;;5.70;99.90;;;;;;4987886;28;20477;-87
2021/11/16 10:04:15;;;;;;;86.43;30.70;;;5.70;99.90;;;;;;5011303;28;20041;-82
2021/11/16 10:06:42;;;;;;;78.57;30.58;;;5.80;99.90;;;;;;5000416;28;20096;-88
2021/11/16 10:09:14;;;;;;;94.25;32.47;;;5.80;99.90;;;;;;4992933;28;20045;-83
2021/11/16 10:11:43;;;;;;;81.32;30.10;;;5.80;99.90;;;;;;4989878;28;20576;-82
2021/11/16 10:14:21;;;;;;;92.28;31.65;;;5.80;99.90;;;;;;5015783;28;20056;-86
2021/11/16 10:16:48;;;;;;;86.85;32.38;;;5.80;99.90;;;;;;5004145;28;20523;-87
2021/11/16 10:19:14;;;;;;;93.35;31.52;;;5.80;99.90;;;;;;5009953;28;20034;-85
2021/11/16 10:21:41;;;;;;;86.15;31.40;;;5.80;99.90;;;;;;5002342;28;20037;-84
2021/11/16 10:24:39;;;;;;;86.10;32.45;;;5.80;99.90;;;;;;5004889;28;20037;-85
2021/11/16 10:27:17;;;;;;;85.65;30.90;;;5.80;99.90;;;;;;4946573;28;20066;-87
2021/11/16 10:29:44;;;;;;;93.72;31.02;;;5.80;99.90;;;;;;4943617;28;20572;-87
2021/11/16 10:32:21;;;;;;;74.22;29.40;;;5.80;99.90;;;;;;5010991;28;20084;-89
2021/11/16 10:34:47;;;;;;;72.22;26.30;;;5.80;99.90;;;;;;4980414;28;20053;-86
2021/11/16 10:37:13;;;;;;;73.35;26.42;;;5.80;99.90;;;;;;4996209;28;20064;-85
2021/11/16 10:39:38;;;;;;;77.15;28.85;;;5.80;99.90;;;;;;5010028;28;20084;-85
2021/11/16 10:42:14;;;;;;;69.70;27.15;;;5.80;99.90;;;;;;5025827;28;20048;-82
2021/11/16 10:44:39;;;;;;;74.32;28.38;;;5.80;99.90;;;;;;5009969;28;20057;-84
2021/11/16 10:47:06;;;;;;;73.10;28.38;;;5.80;99.90;;;;;;5025122;28;20033;-83
2021/11/16 10:49:32;;;;;;;74.88;27.33;;;5.80;99.90;;;;;;5007347;28;20053;-83
2021/11/16 10:51:58;;;;;;;70.22;26.40;;;5.80;99.90;;;;;;5009059;28;20034;-83
2021/11/16 10:54:24;;;;;;;70.55;26.15;;;5.80;99.90;;;;;;5007392;28;20132;-83
2021/11/16 10:56:57;;;;;;;63.85;26.42;;;5.80;99.90;;;;;;5031563;28;20030;-83
2021/11/16 10:59:31;;;;;;;74.60;26.27;;;5.80;99.90;;;;;;5010271;28;20092;-83
2021/11/16 11:01:59;;;;;;;64.35;24.75;;;5.80;99.90;;;;;;4997054;28;20095;-83
2021/11/16 11:04:32;;;;;;;64.00;25.40;;;5.80;99.90;;;;;;5011788;28;20149;-83
2021/11/16 11:07:12;;;;;;;69.05;25.95;;;5.70;99.90;;;;;;5004259;28;20048;-83
2021/11/16 11:09:37;;;;;;;73.60;26.10;;;5.80;99.90;;;;;;5009760;28;20437;-83
2021/11/16 11:12:03;;;;;;;73.13;26.23;;;5.70;99.90;;;;;;5009064;28;20222;-84
2021/11/16 11:14:35;;;;;;;72.07;26.10;;;5.70;99.90;;;;;;5010552;28;20498;-82
2021/11/16 11:17:07;;;;;;;72.70;26.83;;;5.70;99.90;;;;;;4997405;28;20040;-83
2021/11/16 11:19:36;;;;;;;69.22;26.33;;;5.70;99.90;;;;;;5007399;28;20484;-86
2021/11/16 11:22:22;;;;;;;70.82;25.38;;;5.80;99.90;;;;;;4986066;28;20060;-85
2021/11/16 11:27:34;;;;;;;66.18;25.95;;;5.80;99.90;;;;;;5001214;28;20484;-85
2021/11/16 11:30:02;;;;;;;73.60;27.27;;;5.80;99.90;;;;;;4994859;28;20502;-85
2021/11/16 11:32:30;;;;;;;69.03;25.70;;;5.80;99.90;;;;;;5004118;28;20034;-86
2021/11/16 11:35:20;;;;;;;65.78;25.20;;;5.80;99.90;;;;;;5011173;28;20049;-86
2021/11/16 11:37:55;;;;;;;72.32;25.55;;;5.90;99.90;;;;;;5004317;28;20118;-86
2021/11/16 11:40:30;;;;;;;71.13;25.50;;;5.80;99.90;;;;;;5017372;28;20108;-86
2021/11/16 11:43:00;;;;;;;71.38;26.65;;;5.80;99.90;;;;;;4992576;28;20388;-85
2021/11/16 11:45:29;;;;;;;73.07;26.20;;;5.80;99.90;;;;;;5021674;28;20041;-86
2021/11/16 11:48:04;;;;;;;74.00;26.92;;;5.80;99.90;;;;;;5016114;28;20130;-86
2021/11/16 11:50:43;;;;;;;75.57;26.63;;;5.80;99.90;;;;;;5000644;28;20041;-84
2021/11/16 11:53:12;;;;;;;66.03;25.35;;;5.80;99.90;;;;;;5008762;28;20040;-85
2021/11/16 11:55:41;;;;;;;74.53;25.77;;;5.90;99.90;;;;;;5021188;28;20045;-84
2021/11/16 11:58:07;;;;;;;74.88;25.67;;;5.80;99.90;;;;;;5013494;28;20037;-84
2021/11/16 12:00:34;;;;;;;60.65;23.80;;;5.90;99.90;;;;;;5025838;28;20026;-86
2021/11/16 12:03:02;;;;;;;63.92;23.48;;;5.90;99.90;;;;;;5015840;28;20016;-87
2021/11/16 12:05:32;;;;;;;63.70;24.83;;;5.90;99.90;;;;;;4999154;28;20038;-87
2021/11/16 12:07:58;;;;;;;57.15;23.75;;;5.90;99.90;;;;;;4992416;28;20410;-88
2021/11/16 12:10:23;;;;;;;52.55;20.67;;;6.00;99.90;;;;;;4986617;28;20037;-88
2021/11/16 12:12:51;;;;;;;46.33;18.27;;;6.00;99.90;;;;;;5001089;28;20557;-88
2021/11/16 12:15:24;;;;;;;52.38;20.15;;;6.00;99.90;;;;;;5002406;28;20041;-85
2021/11/16 12:17:56;;;;;;;54.97;20.80;;;6.00;99.90;;;;;;5000475;28;20432;-84
2021/11/16 12:20:41;;;;;;;57.92;24.42;;;6.10;99.90;;;;;;4998136;28;20038;-83
2021/11/16 12:23:11;;;;;;;58.97;23.88;;;6.10;99.90;;;;;;5004222;28;20045;-83
2021/11/16 12:25:37;;;;;;;64.40;28.25;;;5.80;99.90;;;;;;5001524;28;20492;-83
2021/11/16 12:28:27;;;;;;;73.80;35.83;;;6.00;99.90;;;;;;5004410;28;20129;-84
2021/11/16 12:30:53;;;;;;;97.93;46.97;;;6.00;99.90;;;;;;5017671;28;20045;-82
2021/11/16 12:33:41;;;;;;;47.72;20.17;;;6.00;99.90;;;;;;5006315;28;20407;-83
2021/11/16 12:36:09;;;;;;;47.85;20.38;;;6.00;99.90;;;;;;5007048;23;20072;-55
2021/11/16 12:38:38;;;;;;;63.70;27.75;;;6.00;99.90;;;;;;5028164;28;20034;-53
2021/11/16 12:41:27;;;;;;;50.55;20.58;;;5.90;99.90;;;;;;5027210;28;20029;-56
2021/11/16 12:43:53;;;;;;;49.67;20.95;;;6.00;99.90;;;;;;5031551;28;20036;-55
2021/11/16 12:46:19;;;;;;;46.40;20.05;;;5.90;99.90;;;;;;5026057;28;20040;-55
2021/11/16 12:48:49;;;;;;;53.95;19.90;;;5.90;99.90;;;;;;5031427;28;20037;-55
2021/11/16 12:51:37;;;;;;;53.25;20.25;;;5.90;99.90;;;;;;5037954;28;20037;-56
2021/11/16 12:54:20;;;;;;;47.05;18.40;;;5.90;99.90;;;;;;5034440;28;20033;-54
2021/11/16 12:56:46;;;;;;;42.70;18.27;;;5.90;99.90;;;;;;5021397;28;20030;-54
2021/11/16 12:59:40;;;;;;;38.63;18.30;;;6.00;99.90;;;;;;5025094;28;20567;-56
2021/11/16 13:02:19;;;;;;;40.80;16.42;;;6.00;99.90;;;;;;5028825;28;20124;-56
2021/11/16 13:04:50;;;;;;;40.17;16.80;;;6.00;99.90;;;;;;5020403;28;20050;-54
2021/11/16 13:07:29;;;;;;;41.83;17.83;;;6.00;99.90;;;;;;5022906;28;20578;-53
2021/11/16 13:10:01;;;;;;;42.72;18.25;;;6.10;99.90;;;;;;5004431;28;20089;-53